Home   Weather   Germany   Gütersloh   Past weeks
Flag for Germany

Past Weather in Gütersloh, North Rhine-Westphalia, Germany — Yesterday and Last 2 Weeks

Currently: 55 °F. Sunny. (Weather station: Paderborn / Lippstadt, Germany). See more current weather

Past Weather in Gütersloh — Graph

°F

Gütersloh Temperature Yesterday

Maximum temperature yesterday: 70 °F (at 7:20 pm)
Minimum temperature yesterday: 46 °F (at 5:50 am)
Average temperature yesterday: 58 °F

High & Low Weather Summary for the Past Weeks

 TemperatureHumidityPressure
High79 °F (Jun 2, 2:50 pm)100% (May 30, 6:20 am)30.36 "Hg (May 30, 6:20 am)
Low39 °F (May 30, 6:20 am)25% (May 31, 6:20 pm)29.98 "Hg (Jun 2, 2:50 am)
Average63 °F70%30.15 "Hg
* Reported May 30 5:20 am — Jun 14 5:50 am, Gütersloh. Weather by CustomWeather, © 2021

Note: Actual official high and low records may vary slightly from our data, if they occured in-between our weather recording intervals... More about our weather records

Gütersloh Weather History for the Previous 24 Hours

Scroll right to see more
 ConditionsComfort  
Time TempWeatherWind HumidityBarometerVisibility
5:50 am
Mon, Jun 14
55 °FSunny.6 mph67%30.21 "Hg10 mi
5:20 am54 °FSunny.7 mph72%30.24 "Hg10 mi
4:50 am54 °FClear.8 mph72%30.24 "Hg10 mi
4:20 am54 °FClear.7 mph72%30.24 "Hg10 mi
3:50 am54 °FClear.7 mph72%30.24 "Hg10 mi
3:20 am55 °FClear.8 mph72%30.24 "Hg10 mi
2:50 am54 °FClear.8 mph77%30.27 "Hg10 mi
2:20 am52 °FClear.8 mph82%30.27 "Hg10 mi
1:50 am52 °FClear.8 mph82%30.27 "Hg10 mi
1:20 am54 °FClear.6 mph77%30.27 "Hg10 mi
12:50 am52 °FClear.9 mph88%30.27 "Hg10 mi
12:20 am54 °FClear.7 mph82%30.27 "Hg10 mi
11:50 pm
Sun, Jun 13
57 °FPassing clouds.6 mph72%30.30 "HgN/A
11:20 pm55 °FPassing clouds.3 mph77%30.30 "HgN/A
10:50 pm59 °FClear.2 mph63%30.30 "Hg10 mi
10:20 pm61 °FClear.3 mph63%30.30 "Hg10 mi
9:50 pm63 °FClear.3 mph59%30.30 "Hg10 mi
9:20 pm63 °FSunny.2 mph59%30.30 "Hg10 mi
8:50 pm66 °FSunny.2 mph46%30.30 "Hg10 mi
8:20 pm68 °FPassing clouds.3 mph43%30.30 "HgN/A
7:50 pm68 °FPassing clouds.3 mph40%30.30 "HgN/A
7:20 pm70 °FSunny.3 mph40%30.30 "Hg10 mi
6:50 pm68 °FSunny.3 mph43%30.30 "Hg10 mi
6:20 pm68 °FPassing clouds.5 mph40%30.30 "HgN/A
5:50 pm66 °FSunny.6 mph43%30.30 "Hg10 mi
5:20 pm66 °FPassing clouds.5 mph40%30.33 "HgN/A
4:50 pm66 °FSunny.5 mph46%30.33 "Hg10 mi
4:20 pm66 °FPassing clouds.5 mph46%30.33 "HgN/A
3:50 pm66 °FPassing clouds.5 mph43%30.33 "HgN/A
3:20 pm66 °FPassing clouds.6 mph43%30.33 "HgN/A
2:50 pm64 °FPassing clouds.6 mph46%30.36 "HgN/A
2:20 pm64 °FPassing clouds.6 mph49%30.36 "HgN/A
1:50 pm64 °FPassing clouds.6 mph46%30.36 "HgN/A
1:20 pm61 °FPassing clouds.6 mph52%30.36 "HgN/A
12:50 pm61 °FPassing clouds.5 mph52%30.36 "HgN/A
12:20 pm61 °FPassing clouds.7 mph52%30.36 "HgN/A
11:50 am59 °FPassing clouds.6 mph55%30.36 "HgN/A
11:20 am59 °FPassing clouds.6 mph55%30.36 "HgN/A
10:50 am59 °FPassing clouds.7 mph55%30.36 "HgN/A
10:20 am55 °FPassing clouds.6 mph67%30.36 "HgN/A
9:50 am55 °FScattered clouds.5 mph72%30.36 "HgN/A
9:20 am55 °FBroken clouds.5 mph72%30.33 "HgN/A
8:50 am55 °FPassing clouds.5 mph72%30.33 "HgN/A
8:20 am54 °FPassing clouds.5 mph77%30.33 "HgN/A
7:50 am52 °FPassing clouds.3 mph82%30.33 "HgN/A
7:20 am50 °FPassing clouds.3 mph88%30.30 "HgN/A
6:50 am50 °FSunny.2 mph88%30.30 "Hg10 mi
6:20 am48 °FPassing clouds.3 mph87%30.30 "HgN/A
Weather by CustomWeather, © 2021

See weather overview